sensor_id;sensor_type;location;lat;lon;timestamp;pressure;altitude;pressure_sealevel;temperature;humidity
48652;BME280;34442;52.362;-1.302;2023-03-01T00:01:49;102064.72;;;5.42;100.00
48652;BME280;34442;52.362;-1.302;2023-03-01T00:04:15;102072.81;;;5.31;100.00
48652;BME280;34442;52.362;-1.302;2023-03-01T00:06:42;102064.22;;;5.28;100.00
48652;BME280;34442;52.362;-1.302;2023-03-01T00:09:08;102068.44;;;5.30;100.00
48652;BME280;34442;52.362;-1.302;2023-03-01T00:11:33;102071.25;;;5.29;100.00
48652;BME280;34442;52.362;-1.302;2023-03-01T00:14:00;102065.06;;;5.28;100.00
48652;BME280;34442;52.362;-1.302;2023-03-01T00:16:32;102063.28;;;5.38;100.00
48652;BME280;34442;52.362;-1.302;2023-03-01T00:18:58;102062.59;;;5.36;100.00
48652;BME280;34442;52.362;-1.302;2023-03-01T00:21:25;102065.91;;;5.50;100.00
48652;BME280;34442;52.362;-1.302;2023-03-01T00:23:51;102065.38;;;5.56;100.00
48652;BME280;34442;52.362;-1.302;2023-03-01T00:26:19;102064.41;;;5.57;100.00
48652;BME280;34442;52.362;-1.302;2023-03-01T00:28:45;102068.31;;;5.53;100.00
48652;BME280;34442;52.362;-1.302;2023-03-01T00:31:15;102064.91;;;5.51;100.00
48652;BME280;34442;52.362;-1.302;2023-03-01T00:33:41;102069.16;;;5.53;100.00
48652;BME280;34442;52.362;-1.302;2023-03-01T00:36:07;102070.00;;;5.54;100.00
48652;BME280;34442;52.362;-1.302;2023-03-01T00:38:38;102067.31;;;5.54;100.00
48652;BME280;34442;52.362;-1.302;2023-03-01T00:41:06;102062.13;;;5.52;100.00
48652;BME280;34442;52.362;-1.302;2023-03-01T00:43:31;102059.19;;;5.55;100.00
48652;BME280;34442;52.362;-1.302;2023-03-01T00:46:06;102057.72;;;5.41;100.00
48652;BME280;34442;52.362;-1.302;2023-03-01T00:48:32;102062.91;;;5.43;100.00
48652;BME280;34442;52.362;-1.302;2023-03-01T00:53:32;102051.28;;;5.44;100.00
48652;BME280;34442;52.362;-1.302;2023-03-01T00:55:58;102062.97;;;5.53;100.00
48652;BME280;34442;52.362;-1.302;2023-03-01T00:58:24;102059.91;;;5.57;100.00
48652;BME280;34442;52.362;-1.302;2023-03-01T01:00:49;102060.16;;;5.54;100.00
48652;BME280;34442;52.362;-1.302;2023-03-01T01:03:15;102062.81;;;5.54;100.00
48652;BME280;34442;52.362;-1.302;2023-03-01T01:05:40;102058.72;;;5.50;100.00
48652;BME280;34442;52.362;-1.302;2023-03-01T01:08:06;102055.78;;;5.43;100.00
48652;BME280;34442;52.362;-1.302;2023-03-01T01:10:34;102056.47;;;5.45;100.00
48652;BME280;34442;52.362;-1.302;2023-03-01T01:12:59;102057.72;;;5.41;100.00
48652;BME280;34442;52.362;-1.302;2023-03-01T01:15:26;102054.44;;;5.38;100.00
48652;BME280;34442;52.362;-1.302;2023-03-01T01:17:51;102059.78;;;5.38;100.00
48652;BME280;34442;52.362;-1.302;2023-03-01T01:20:17;102046.84;;;5.33;100.00
48652;BME280;34442;52.362;-1.302;2023-03-01T01:22:42;102046.22;;;5.20;100.00
48652;BME280;34442;52.362;-1.302;2023-03-01T01:25:08;102041.19;;;5.27;100.00
48652;BME280;34442;52.362;-1.302;2023-03-01T01:27:34;102042.63;;;5.31;100.00
48652;BME280;34442;52.362;-1.302;2023-03-01T01:29:59;102034.63;;;5.31;100.00
48652;BME280;34442;52.362;-1.302;2023-03-01T01:32:25;102035.47;;;5.31;100.00
48652;BME280;34442;52.362;-1.302;2023-03-01T01:34:50;102038.44;;;5.38;100.00
48652;BME280;34442;52.362;-1.302;2023-03-01T01:37:15;102034.97;;;5.47;100.00
48652;BME280;34442;52.362;-1.302;2023-03-01T01:39:41;102034.31;;;5.55;100.00
48652;BME280;34442;52.362;-1.302;2023-03-01T01:42:14;102042.16;;;5.46;100.00
48652;BME280;34442;52.362;-1.302;2023-03-01T01:44:42;102023.38;;;5.48;100.00
48652;BME280;34442;52.362;-1.302;2023-03-01T01:47:19;102022.53;;;5.47;100.00
48652;BME280;34442;52.362;-1.302;2023-03-01T01:49:53;102020.38;;;5.41;100.00
48652;BME280;34442;52.362;-1.302;2023-03-01T01:52:34;102022.34;;;5.39;100.00
48652;BME280;34442;52.362;-1.302;2023-03-01T01:55:08;102021.94;;;5.44;100.00
48652;BME280;34442;52.362;-1.302;2023-03-01T01:57:45;102005.94;;;5.44;100.00
48652;BME280;34442;52.362;-1.302;2023-03-01T02:00:16;102012.22;;;5.43;100.00
48652;BME280;34442;52.362;-1.302;2023-03-01T02:02:43;102012.69;;;5.48;100.00
48652;BME280;34442;52.362;-1.302;2023-03-01T02:05:17;102007.06;;;5.51;100.00
48652;BME280;34442;52.362;-1.302;2023-03-01T02:07:46;102000.91;;;5.51;100.00
48652;BME280;34442;52.362;-1.302;2023-03-01T02:10:12;101997.78;;;5.45;100.00
48652;BME280;34442;52.362;-1.302;2023-03-01T02:12:38;101998.88;;;5.43;100.00
48652;BME280;34442;52.362;-1.302;2023-03-01T02:15:05;102000.03;;;5.40;100.00
48652;BME280;34442;52.362;-1.302;2023-03-01T02:17:31;101998.38;;;5.49;100.00
48652;BME280;34442;52.362;-1.302;2023-03-01T02:20:21;101985.63;;;5.53;100.00
48652;BME280;34442;52.362;-1.302;2023-03-01T02:22:48;101986.19;;;5.56;100.00
48652;BME280;34442;52.362;-1.302;2023-03-01T02:28:00;101978.81;;;5.39;100.00
48652;BME280;34442;52.362;-1.302;2023-03-01T02:30:30;101987.13;;;5.45;100.00
48652;BME280;34442;52.362;-1.302;2023-03-01T02:32:58;101983.53;;;5.56;100.00
48652;BME280;34442;52.362;-1.302;2023-03-01T02:35:30;101986.31;;;5.55;100.00
48652;BME280;34442;52.362;-1.302;2023-03-01T02:37:58;101980.69;;;5.48;100.00
48652;BME280;34442;52.362;-1.302;2023-03-01T02:40:28;101977.00;;;5.39;100.00
48652;BME280;34442;52.362;-1.302;2023-03-01T02:42:56;101978.75;;;5.29;100.00
48652;BME280;34442;52.362;-1.302;2023-03-01T02:45:22;101976.03;;;5.40;100.00
48652;BME280;34442;52.362;-1.302;2023-03-01T02:47:48;101975.59;;;5.35;100.00
48652;BME280;34442;52.362;-1.302;2023-03-01T02:53:11;101975.88;;;5.11;100.00
48652;BME280;34442;52.362;-1.302;2023-03-01T02:55:38;101971.88;;;5.06;100.00
48652;BME280;34442;52.362;-1.302;2023-03-01T02:58:04;101973.66;;;5.16;100.00
48652;BME280;34442;52.362;-1.302;2023-03-01T03:00:36;101972.16;;;5.23;100.00
48652;BME280;34442;52.362;-1.302;2023-03-01T03:03:05;101967.91;;;5.21;100.00
48652;BME280;34442;52.362;-1.302;2023-03-01T03:05:32;101958.50;;;5.17;100.00
48652;BME280;34442;52.362;-1.302;2023-03-01T03:07:59;101963.16;;;5.25;100.00
48652;BME280;34442;52.362;-1.302;2023-03-01T03:10:30;101951.09;;;5.20;100.00
48652;BME280;34442;52.362;-1.302;2023-03-01T03:13:01;101953.59;;;5.22;100.00
48652;BME280;34442;52.362;-1.302;2023-03-01T03:15:28;101941.03;;;5.34;100.00
48652;BME280;34442;52.362;-1.302;2023-03-01T03:17:55;101943.84;;;5.32;100.00
48652;BME280;34442;52.362;-1.302;2023-03-01T03:20:24;101941.88;;;5.34;100.00
48652;BME280;34442;52.362;-1.302;2023-03-01T03:22:52;101934.44;;;5.38;100.00
48652;BME280;34442;52.362;-1.302;2023-03-01T03:25:19;101930.50;;;5.32;100.00
48652;BME280;34442;52.362;-1.302;2023-03-01T03:27:46;101923.63;;;5.30;100.00
48652;BME280;34442;52.362;-1.302;2023-03-01T03:30:15;101917.25;;;5.21;100.00
48652;BME280;34442;52.362;-1.302;2023-03-01T03:32:43;101922.81;;;5.08;100.00
48652;BME280;34442;52.362;-1.302;2023-03-01T03:35:18;101916.78;;;5.06;100.00
48652;BME280;34442;52.362;-1.302;2023-03-01T03:37:44;101918.31;;;5.09;100.00
48652;BME280;34442;52.362;-1.302;2023-03-01T03:40:36;101924.28;;;5.22;100.00
48652;BME280;34442;52.362;-1.302;2023-03-01T03:43:04;101920.69;;;5.33;100.00
48652;BME280;34442;52.362;-1.302;2023-03-01T03:45:29;101914.34;;;5.24;100.00
48652;BME280;34442;52.362;-1.302;2023-03-01T03:47:55;101915.34;;;5.33;100.00
48652;BME280;34442;52.362;-1.302;2023-03-01T03:50:20;101917.03;;;5.34;100.00
48652;BME280;34442;52.362;-1.302;2023-03-01T03:52:46;101922.78;;;5.29;100.00
48652;BME280;34442;52.362;-1.302;2023-03-01T03:55:12;101918.59;;;5.36;100.00
48652;BME280;34442;52.362;-1.302;2023-03-01T03:57:38;101910.69;;;5.25;100.00
48652;BME280;34442;52.362;-1.302;2023-03-01T04:00:05;101919.13;;;5.30;100.00
48652;BME280;34442;52.362;-1.302;2023-03-01T04:02:41;101916.16;;;5.23;100.00
48652;BME280;34442;52.362;-1.302;2023-03-01T04:05:08;101912.94;;;5.30;100.00
48652;BME280;34442;52.362;-1.302;2023-03-01T04:07:35;101909.84;;;5.25;100.00
48652;BME280;34442;52.362;-1.302;2023-03-01T04:10:05;101909.28;;;5.31;100.00
48652;BME280;34442;52.362;-1.302;2023-03-01T04:12:32;101908.28;;;5.22;100.00
48652;BME280;34442;52.362;-1.302;2023-03-01T04:14:59;101905.31;;;5.15;100.00
48652;BME280;34442;52.362;-1.302;2023-03-01T04:17:25;101901.91;;;5.04;100.00
48652;BME280;34442;52.362;-1.302;2023-03-01T04:19:50;101903.56;;;5.05;100.00
48652;BME280;34442;52.362;-1.302;2023-03-01T04:22:16;101904.38;;;4.95;100.00
48652;BME280;34442;52.362;-1.302;2023-03-01T04:24:43;101900.34;;;5.01;100.00
48652;BME280;34442;52.362;-1.302;2023-03-01T04:27:10;101898.72;;;4.89;100.00
48652;BME280;34442;52.362;-1.302;2023-03-01T04:29:36;101896.78;;;4.91;100.00
48652;BME280;34442;52.362;-1.302;2023-03-01T04:32:02;101896.13;;;4.98;100.00
48652;BME280;34442;52.362;-1.302;2023-03-01T04:34:28;101888.16;;;5.08;100.00
48652;BME280;34442;52.362;-1.302;2023-03-01T04:36:54;101895.06;;;5.11;100.00
48652;BME280;34442;52.362;-1.302;2023-03-01T04:39:20;101886.06;;;5.02;100.00
48652;BME280;34442;52.362;-1.302;2023-03-01T04:41:45;101887.47;;;5.06;100.00
48652;BME280;34442;52.362;-1.302;2023-03-01T04:44:11;101891.09;;;5.05;100.00
48652;BME280;34442;52.362;-1.302;2023-03-01T04:46:36;101884.50;;;5.00;100.00
48652;BME280;34442;52.362;-1.302;2023-03-01T04:49:05;101886.41;;;4.97;100.00
48652;BME280;34442;52.362;-1.302;2023-03-01T04:51:30;101889.16;;;5.07;100.00
48652;BME280;34442;52.362;-1.302;2023-03-01T04:54:00;101887.06;;;5.11;100.00
48652;BME280;34442;52.362;-1.302;2023-03-01T04:56:25;101874.25;;;5.05;100.00
48652;BME280;34442;52.362;-1.302;2023-03-01T04:58:53;101870.09;;;5.12;100.00
48652;BME280;34442;52.362;-1.302;2023-03-01T05:01:20;101876.34;;;5.01;100.00
48652;BME280;34442;52.362;-1.302;2023-03-01T05:03:49;101867.84;;;5.07;100.00
48652;BME280;34442;52.362;-1.302;2023-03-01T05:06:15;101867.56;;;5.10;100.00
48652;BME280;34442;52.362;-1.302;2023-03-01T05:08:42;101877.00;;;5.14;100.00
48652;BME280;34442;52.362;-1.302;2023-03-01T05:11:08;101866.19;;;5.16;100.00
48652;BME280;34442;52.362;-1.302;2023-03-01T05:13:35;101870.34;;;5.09;100.00
48652;BME280;34442;52.362;-1.302;2023-03-01T05:16:02;101872.75;;;5.12;100.00
48652;BME280;34442;52.362;-1.302;2023-03-01T05:18:29;101873.59;;;5.12;100.00
48652;BME280;34442;52.362;-1.302;2023-03-01T05:21:11;101867.84;;;5.17;100.00
48652;BME280;34442;52.362;-1.302;2023-03-01T05:23:37;101867.44;;;5.12;100.00
48652;BME280;34442;52.362;-1.302;2023-03-01T05:26:04;101865.19;;;5.17;100.00
48652;BME280;34442;52.362;-1.302;2023-03-01T05:28:31;101865.19;;;5.17;100.00
48652;BME280;34442;52.362;-1.302;2023-03-01T05:30:57;101857.63;;;5.22;100.00
48652;BME280;34442;52.362;-1.302;2023-03-01T05:33:23;101857.09;;;5.18;100.00
48652;BME280;34442;52.362;-1.302;2023-03-01T05:35:50;101849.19;;;5.17;100.00
48652;BME280;34442;52.362;-1.302;2023-03-01T05:38:17;101859.28;;;5.13;100.00
48652;BME280;34442;52.362;-1.302;2023-03-01T05:40:44;101853.13;;;5.13;100.00
48652;BME280;34442;52.362;-1.302;2023-03-01T05:43:11;101851.19;;;5.15;100.00
48652;BME280;34442;52.362;-1.302;2023-03-01T05:45:39;101849.19;;;5.07;100.00
48652;BME280;34442;52.362;-1.302;2023-03-01T05:48:06;101852.84;;;5.16;100.00
48652;BME280;34442;52.362;-1.302;2023-03-01T05:50:35;101853.28;;;5.21;100.00
48652;BME280;34442;52.362;-1.302;2023-03-01T05:53:03;101849.94;;;5.19;100.00
48652;BME280;34442;52.362;-1.302;2023-03-01T05:55:30;101852.00;;;5.15;100.00
48652;BME280;34442;52.362;-1.302;2023-03-01T05:58:00;101844.59;;;5.19;100.00
48652;BME280;34442;52.362;-1.302;2023-03-01T06:00:26;101843.44;;;5.12;100.00
48652;BME280;34442;52.362;-1.302;2023-03-01T06:02:53;101843.28;;;5.13;100.00
48652;BME280;34442;52.362;-1.302;2023-03-01T06:05:18;101851.00;;;5.07;100.00
48652;BME280;34442;52.362;-1.302;2023-03-01T06:07:44;101850.44;;;5.13;100.00
48652;BME280;34442;52.362;-1.302;2023-03-01T06:10:10;101853.84;;;5.25;100.00
48652;BME280;34442;52.362;-1.302;2023-03-01T06:12:37;101855.53;;;5.26;100.00
48652;BME280;34442;52.362;-1.302;2023-03-01T06:15:04;101851.28;;;5.13;100.00
48652;BME280;34442;52.362;-1.302;2023-03-01T06:17:32;101861.09;;;5.13;100.00
48652;BME280;34442;52.362;-1.302;2023-03-01T06:19:58;101857.88;;;5.09;100.00
48652;BME280;34442;52.362;-1.302;2023-03-01T06:22:23;101854.44;;;4.97;100.00
48652;BME280;34442;52.362;-1.302;2023-03-01T06:24:49;101852.50;;;5.00;100.00
48652;BME280;34442;52.362;-1.302;2023-03-01T06:27:15;101854.81;;;4.83;100.00
48652;BME280;34442;52.362;-1.302;2023-03-01T06:29:40;101853.50;;;4.98;100.00
48652;BME280;34442;52.362;-1.302;2023-03-01T06:32:06;101860.94;;;5.05;100.00
48652;BME280;34442;52.362;-1.302;2023-03-01T06:34:31;101858.28;;;5.05;100.00
48652;BME280;34442;52.362;-1.302;2023-03-01T06:36:57;101860.13;;;5.14;100.00
48652;BME280;34442;52.362;-1.302;2023-03-01T06:39:22;101856.22;;;5.18;100.00
48652;BME280;34442;52.362;-1.302;2023-03-01T06:41:47;101851.75;;;5.18;100.00
48652;BME280;34442;52.362;-1.302;2023-03-01T06:44:13;101851.19;;;5.15;100.00
48652;BME280;34442;52.362;-1.302;2023-03-01T06:46:39;101858.72;;;5.10;100.00
48652;BME280;34442;52.362;-1.302;2023-03-01T06:49:05;101864.75;;;5.12;100.00
48652;BME280;34442;52.362;-1.302;2023-03-01T06:51:34;101864.75;;;5.12;100.00
48652;BME280;34442;52.362;-1.302;2023-03-01T06:54:00;101863.91;;;5.11;100.00
48652;BME280;34442;52.362;-1.302;2023-03-01T06:56:26;101857.56;;;5.03;100.00
48652;BME280;34442;52.362;-1.302;2023-03-01T06:58:52;101867.00;;;5.07;100.00
48652;BME280;34442;52.362;-1.302;2023-03-01T07:01:17;101863.69;;;4.93;100.00
48652;BME280;34442;52.362;-1.302;2023-03-01T07:03:43;101870.56;;;4.96;100.00
48652;BME280;34442;52.362;-1.302;2023-03-01T07:06:09;101864.94;;;4.89;100.00
48652;BME280;34442;52.362;-1.302;2023-03-01T07:08:35;101863.81;;;4.92;100.00
48652;BME280;34442;52.362;-1.302;2023-03-01T07:11:00;101871.00;;;5.01;100.00
48652;BME280;34442;52.362;-1.302;2023-03-01T07:13:27;101862.00;;;4.92;100.00
48652;BME280;34442;52.362;-1.302;2023-03-01T07:15:53;101858.16;;;5.06;100.00
48652;BME280;34442;52.362;-1.302;2023-03-01T07:18:18;101863.16;;;5.00;100.00
48652;BME280;34442;52.362;-1.302;2023-03-01T07:20:43;101871.84;;;5.02;100.00
48652;BME280;34442;52.362;-1.302;2023-03-01T07:23:09;101870.66;;;5.15;100.00
48652;BME280;34442;52.362;-1.302;2023-03-01T07:25:35;101877.28;;;5.21;100.00
48652;BME280;34442;52.362;-1.302;2023-03-01T07:28:00;101874.75;;;5.60;100.00
48652;BME280;34442;52.362;-1.302;2023-03-01T07:30:26;101870.69;;;5.75;100.00
48652;BME280;34442;52.362;-1.302;2023-03-01T07:32:54;101872.28;;;5.37;100.00
48652;BME280;34442;52.362;-1.302;2023-03-01T07:35:20;101869.44;;;5.29;100.00
48652;BME280;34442;52.362;-1.302;2023-03-01T07:37:46;101868.94;;;5.55;100.00
48652;BME280;34442;52.362;-1.302;2023-03-01T07:40:12;101876.72;;;5.87;100.00
48652;BME280;34442;52.362;-1.302;2023-03-01T07:42:40;101869.06;;;5.93;100.00
48652;BME280;34442;52.362;-1.302;2023-03-01T07:45:06;101866.38;;;5.93;100.00
48652;BME280;34442;52.362;-1.302;2023-03-01T07:47:32;101869.72;;;5.86;100.00
48652;BME280;34442;52.362;-1.302;2023-03-01T07:49:57;101880.84;;;6.01;100.00
48652;BME280;34442;52.362;-1.302;2023-03-01T07:52:23;101885.22;;;6.11;100.00
48652;BME280;34442;52.362;-1.302;2023-03-01T07:54:48;101896.59;;;6.04;100.00
48652;BME280;34442;52.362;-1.302;2023-03-01T07:57:14;101889.28;;;6.06;100.00
48652;BME280;34442;52.362;-1.302;2023-03-01T07:59:39;101886.47;;;6.07;100.00
48652;BME280;34442;52.362;-1.302;2023-03-01T08:02:05;101884.78;;;6.16;100.00
48652;BME280;34442;52.362;-1.302;2023-03-01T08:04:32;101893.22;;;6.11;100.00
48652;BME280;34442;52.362;-1.302;2023-03-01T08:06:58;101887.44;;;5.96;100.00
48652;BME280;34442;52.362;-1.302;2023-03-01T08:09:23;101884.91;;;6.05;100.00
48652;BME280;34442;52.362;-1.302;2023-03-01T08:11:49;101875.09;;;6.15;100.00
48652;BME280;34442;52.362;-1.302;2023-03-01T08:14:14;101877.47;;;6.08;100.00
48652;BME280;34442;52.362;-1.302;2023-03-01T08:16:39;101898.00;;;6.08;100.00
48652;BME280;34442;52.362;-1.302;2023-03-01T08:19:10;101891.66;;;6.09;100.00
48652;BME280;34442;52.362;-1.302;2023-03-01T08:21:36;101897.16;;;6.17;100.00
48652;BME280;34442;52.362;-1.302;2023-03-01T08:24:03;101892.47;;;6.58;100.00
48652;BME280;34442;52.362;-1.302;2023-03-01T08:26:29;101890.94;;;6.65;100.00
48652;BME280;34442;52.362;-1.302;2023-03-01T08:28:55;101895.88;;;6.60;100.00
48652;BME280;34442;52.362;-1.302;2023-03-01T08:31:32;101896.28;;;6.65;100.00
48652;BME280;34442;52.362;-1.302;2023-03-01T08:33:59;101894.00;;;6.70;100.00
48652;BME280;34442;52.362;-1.302;2023-03-01T08:36:30;101896.13;;;6.66;100.00
48652;BME280;34442;52.362;-1.302;2023-03-01T08:38:56;101883.19;;;6.71;100.00
48652;BME280;34442;52.362;-1.302;2023-03-01T08:41:21;101885.28;;;6.78;100.00
48652;BME280;34442;52.362;-1.302;2023-03-01T08:43:47;101881.59;;;6.88;100.00
48652;BME280;34442;52.362;-1.302;2023-03-01T08:46:13;101886.44;;;6.65;100.00
48652;BME280;34442;52.362;-1.302;2023-03-01T08:48:38;101881.75;;;6.77;100.00
48652;BME280;34442;52.362;-1.302;2023-03-01T08:51:15;101886.94;;;6.79;100.00
48652;BME280;34442;52.362;-1.302;2023-03-01T08:53:41;101880.31;;;6.83;100.00
48652;BME280;34442;52.362;-1.302;2023-03-01T08:56:08;101874.34;;;6.71;100.00
48652;BME280;34442;52.362;-1.302;2023-03-01T08:58:47;101874.84;;;6.84;100.00
48652;BME280;34442;52.362;-1.302;2023-03-01T09:01:15;101873.47;;;6.80;100.00
48652;BME280;34442;52.362;-1.302;2023-03-01T09:03:42;101865.56;;;6.79;100.00
48652;BME280;34442;52.362;-1.302;2023-03-01T09:06:08;101862.06;;;6.78;100.00
48652;BME280;34442;52.362;-1.302;2023-03-01T09:08:35;101860.97;;;6.61;100.00
48652;BME280;34442;52.362;-1.302;2023-03-01T09:11:06;101861.81;;;6.71;100.00
48652;BME280;34442;52.362;-1.302;2023-03-01T09:13:32;101853.31;;;6.86;100.00
48652;BME280;34442;52.362;-1.302;2023-03-01T09:16:00;101853.81;;;6.99;100.00
48652;BME280;34442;52.362;-1.302;2023-03-01T09:18:26;101858.03;;;7.02;100.00
48652;BME280;34442;52.362;-1.302;2023-03-01T09:20:51;101851.63;;;7.22;100.00
48652;BME280;34442;52.362;-1.302;2023-03-01T09:23:18;101847.81;;;7.25;100.00
48652;BME280;34442;52.362;-1.302;2023-03-01T09:25:43;101853.06;;;7.16;100.00
48652;BME280;34442;52.362;-1.302;2023-03-01T09:28:09;101851.34;;;7.25;100.00
48652;BME280;34442;52.362;-1.302;2023-03-01T09:30:36;101841.38;;;7.17;100.00
48652;BME280;34442;52.362;-1.302;2023-03-01T09:33:02;101843.78;;;7.11;100.00
48652;BME280;34442;52.362;-1.302;2023-03-01T09:35:27;101846.06;;;7.06;100.00
48652;BME280;34442;52.362;-1.302;2023-03-01T09:37:53;101842.91;;;6.83;100.00
48652;BME280;34442;52.362;-1.302;2023-03-01T09:40:21;101834.78;;;7.12;100.00
48652;BME280;34442;52.362;-1.302;2023-03-01T09:43:03;101834.38;;;7.07;100.00
48652;BME280;34442;52.362;-1.302;2023-03-01T09:45:38;101829.75;;;6.99;100.00
48652;BME280;34442;52.362;-1.302;2023-03-01T09:48:06;101829.38;;;7.21;100.00
48652;BME280;34442;52.362;-1.302;2023-03-01T09:50:39;101826.75;;;7.39;100.00
48652;BME280;34442;52.362;-1.302;2023-03-01T09:53:12;101823.16;;;7.49;100.00
48652;BME280;34442;52.362;-1.302;2023-03-01T09:55:55;101822.41;;;7.56;100.00
48652;BME280;34442;52.362;-1.302;2023-03-01T09:58:54;101819.06;;;7.72;100.00
48652;BME280;34442;52.362;-1.302;2023-03-01T10:09:34;101805.31;;;7.49;100.00
48652;BME280;34442;52.362;-1.302;2023-03-01T10:12:01;101803.59;;;7.48;100.00
48652;BME280;34442;52.362;-1.302;2023-03-01T10:20:19;101791.69;;;7.60;100.00
48652;BME280;34442;52.362;-1.302;2023-03-01T10:22:45;101796.66;;;7.55;100.00
48652;BME280;34442;52.362;-1.302;2023-03-01T10:25:17;101785.28;;;7.53;100.00
48652;BME280;34442;52.362;-1.302;2023-03-01T10:27:53;101786.28;;;7.70;100.00
48652;BME280;34442;52.362;-1.302;2023-03-01T10:30:34;101772.41;;;7.75;100.00
48652;BME280;34442;52.362;-1.302;2023-03-01T10:33:01;101783.72;;;7.51;100.00
48652;BME280;34442;52.362;-1.302;2023-03-01T10:35:29;101777.06;;;7.37;100.00
48652;BME280;34442;52.362;-1.302;2023-03-01T10:38:11;101775.69;;;7.51;100.00
48652;BME280;34442;52.362;-1.302;2023-03-01T10:43:25;101774.59;;;7.97;100.00
48652;BME280;34442;52.362;-1.302;2023-03-01T10:45:51;101776.63;;;8.21;100.00
48652;BME280;34442;52.362;-1.302;2023-03-01T10:48:24;101769.47;;;7.86;100.00
48652;BME280;34442;52.362;-1.302;2023-03-01T10:51:06;101785.81;;;8.18;100.00
48652;BME280;34442;52.362;-1.302;2023-03-01T10:53:35;101773.78;;;8.40;100.00
48652;BME280;34442;52.362;-1.302;2023-03-01T10:58:37;101775.41;;;8.59;100.00
48652;BME280;34442;52.362;-1.302;2023-03-01T11:01:27;101763.38;;;9.06;100.00
48652;BME280;34442;52.362;-1.302;2023-03-01T11:06:30;101766.75;;;8.39;100.00
48652;BME280;34442;52.362;-1.302;2023-03-01T11:08:56;101767.94;;;8.19;100.00
48652;BME280;34442;52.362;-1.302;2023-03-01T11:11:32;101775.44;;;8.15;100.00
48652;BME280;34442;52.362;-1.302;2023-03-01T11:14:24;101771.97;;;8.23;100.00
48652;BME280;34442;52.362;-1.302;2023-03-01T11:17:02;101770.22;;;7.70;100.00
48652;BME280;34442;52.362;-1.302;2023-03-01T11:19:28;101771.66;;;7.64;100.00
48652;BME280;34442;52.362;-1.302;2023-03-01T11:22:07;101775.22;;;7.73;100.00
48652;BME280;34442;52.362;-1.302;2023-03-01T11:24:50;101759.44;;;8.06;100.00
48652;BME280;34442;52.362;-1.302;2023-03-01T11:27:23;101768.75;;;8.37;100.00
48652;BME280;34442;52.362;-1.302;2023-03-01T11:30:04;101757.84;;;8.39;100.00
48652;BME280;34442;52.362;-1.302;2023-03-01T11:32:43;101755.63;;;8.34;100.00
48652;BME280;34442;52.362;-1.302;2023-03-01T11:35:16;101753.66;;;8.18;100.00
48652;BME280;34442;52.362;-1.302;2023-03-01T11:40:40;101748.13;;;8.12;100.00
48652;BME280;34442;52.362;-1.302;2023-03-01T11:43:31;101734.66;;;8.04;100.00
48652;BME280;34442;52.362;-1.302;2023-03-01T11:52:08;101727.81;;;7.83;100.00
48652;BME280;34442;52.362;-1.302;2023-03-01T11:57:26;101715.03;;;7.95;100.00
48652;BME280;34442;52.362;-1.302;2023-03-01T12:00:42;101716.38;;;8.25;100.00
48652;BME280;34442;52.362;-1.302;2023-03-01T12:03:28;101713.81;;;8.15;100.00
48652;BME280;34442;52.362;-1.302;2023-03-01T12:14:09;101695.44;;;7.94;100.00
48652;BME280;34442;52.362;-1.302;2023-03-01T12:36:52;101670.81;;;8.17;100.00
48652;BME280;34442;52.362;-1.302;2023-03-01T12:48:24;101644.72;;;8.19;100.00
48652;BME280;34442;52.362;-1.302;2023-03-01T12:50:54;101631.72;;;8.06;100.00
48652;BME280;34442;52.362;-1.302;2023-03-01T12:53:44;101628.34;;;8.30;100.00
48652;BME280;34442;52.362;-1.302;2023-03-01T12:56:15;101621.00;;;8.32;100.00
48652;BME280;34442;52.362;-1.302;2023-03-01T13:09:30;101595.16;;;8.57;100.00
48652;BME280;34442;52.362;-1.302;2023-03-01T13:11:59;101585.28;;;8.66;100.00
48652;BME280;34442;52.362;-1.302;2023-03-01T13:16:54;101593.19;;;7.91;100.00
48652;BME280;34442;52.362;-1.302;2023-03-01T13:19:25;101581.84;;;8.05;100.00
48652;BME280;34442;52.362;-1.302;2023-03-01T13:21:52;101574.91;;;8.20;100.00
48652;BME280;34442;52.362;-1.302;2023-03-01T13:24:40;101579.88;;;8.07;100.00
48652;BME280;34442;52.362;-1.302;2023-03-01T13:29:46;101561.88;;;8.34;100.00
48652;BME280;34442;52.362;-1.302;2023-03-01T13:32:19;101571.09;;;8.31;100.00
48652;BME280;34442;52.362;-1.302;2023-03-01T13:34:50;101565.47;;;8.08;100.00
48652;BME280;34442;52.362;-1.302;2023-03-01T13:37:29;101573.53;;;8.16;100.00
48652;BME280;34442;52.362;-1.302;2023-03-01T13:40:00;101560.72;;;8.36;100.00
48652;BME280;34442;52.362;-1.302;2023-03-01T13:42:59;101549.50;;;8.33;100.00
48652;BME280;34442;52.362;-1.302;2023-03-01T13:45:52;101539.84;;;8.40;100.00
48652;BME280;34442;52.362;-1.302;2023-03-01T13:48:22;101539.09;;;8.30;100.00
48652;BME280;34442;52.362;-1.302;2023-03-01T13:50:54;101547.22;;;8.54;100.00
48652;BME280;34442;52.362;-1.302;2023-03-01T13:53:24;101532.81;;;8.63;100.00
48652;BME280;34442;52.362;-1.302;2023-03-01T13:55:55;101527.63;;;8.62;100.00
48652;BME280;34442;52.362;-1.302;2023-03-01T13:58:25;101522.59;;;8.59;100.00
48652;BME280;34442;52.362;-1.302;2023-03-01T14:03:26;101517.56;;;8.56;100.00
48652;BME280;34442;52.362;-1.302;2023-03-01T14:06:45;101519.59;;;8.62;100.00
48652;BME280;34442;52.362;-1.302;2023-03-01T14:09:02;101518.75;;;8.45;100.00
48652;BME280;34442;52.362;-1.302;2023-03-01T14:20:17;101510.59;;;7.70;100.00
48652;BME280;34442;52.362;-1.302;2023-03-01T14:22:44;101505.38;;;7.68;100.00
48652;BME280;34442;52.362;-1.302;2023-03-01T14:25:23;101505.63;;;7.83;100.00
48652;BME280;34442;52.362;-1.302;2023-03-01T14:28:19;101495.09;;;7.82;100.00
48652;BME280;34442;52.362;-1.302;2023-03-01T14:30:51;101497.88;;;7.72;100.00
48652;BME280;34442;52.362;-1.302;2023-03-01T14:33:32;101490.53;;;7.74;100.00
48652;BME280;34442;52.362;-1.302;2023-03-01T14:36:11;101489.34;;;7.77;100.00
48652;BME280;34442;52.362;-1.302;2023-03-01T14:38:42;101492.38;;;7.74;100.00